Terminal Aerodrome Forecast
Issued by NWS

Home | Current Version | Previous Version | Text Only | Print | Product List | Glossary Off
Versions: 1 2 3 4 5 6 7 8 9 10 11 12 13 14 15 16 17

000
FTUS43 KBIS 241001 AAA
TAFMOT
TAF AMD
KMOT 241001Z 2410/2506 17015G22KT P6SM FEW150 FEW250 WS020/19040KT
     FM241400 17015G25KT P6SM FEW110 SCT250
     FM250000 24013G21KT P6SM VCTS BKN060CB OVC090
     FM250200 30012KT P6SM -TSRA BKN070CB BKN150=

USA.gov is the U.S. government's official web portal to all federal, state and local government web resources and services.